This is the latest recevied weather packets stored in our database for station/object KC0RPY. If no packets are shown the sender has not sent any weather packets the latest 1 day(s).
| Time | Temp. | Humidity | Pressure | Rain* | Wind** | Luminosity | Snow |
|---|---|---|---|---|---|---|---|
| 1778048169 | 7.78° C | 82% | 1016 hPa | 0 mm | 1.79 m/s, 1° | 0 W/m² | - |
| 1778047868 | 8.33° C | 80% | 1016.3 hPa | 0 mm | 2.24 m/s, 62° | 0 W/m² | - |
| 1778047574 | 8.33° C | 80% | 1016.3 hPa | 0 mm | 0.89 m/s, 93° | 0 W/m² | - |
| 1778047257 | 8.33° C | 80% | 1016.7 hPa | 0 mm | 1.79 m/s, 46° | 0 W/m² | - |
| 1778046954 | 8.33° C | 80% | 1016.7 hPa | 0 mm | 1.34 m/s, 44° | 0 W/m² | - |
| 1778046651 | 8.33° C | 78% | 1016.3 hPa | 0 mm | 2.24 m/s, 59° | 0 W/m² | - |
| 1778046348 | 8.33° C | 79% | 1016.3 hPa | 0 mm | 1.79 m/s, 61° | 0 W/m² | - |
| 1778046044 | 8.33° C | 78% | 1016.3 hPa | 0 mm | 1.34 m/s, 45° | 0 W/m² | - |
| 1778045742 | 8.33° C | 78% | 1016 hPa | 0 mm | 0.89 m/s, 64° | 0 W/m² | - |
| 1778045440 | 8.89° C | 77% | 1016 hPa | 0 mm | 1.34 m/s, 31° | 0 W/m² | - |
| 1778045138 | 8.89° C | 75% | 1016 hPa | 0 mm | 1.79 m/s, 69° | 0 W/m² | - |
| 1778044836 | 8.89° C | 76% | 1016 hPa | 0 mm | 1.34 m/s, 14° | 0 W/m² | - |
| 1778044532 | 8.89° C | 75% | 1016 hPa | 0 mm | 3.13 m/s, 44° | 0 W/m² | - |
| 1778044229 | 9.44° C | 75% | 1016 hPa | 0 mm | 1.79 m/s, 353° | 0 W/m² | - |
| 1778043927 | 9.44° C | 72% | 1016 hPa | 0 mm | 2.24 m/s, 13° | 0 W/m² | - |
| 1778043625 | 9.44° C | 72% | 1016 hPa | 0 mm | 2.24 m/s, 35° | 0 W/m² | - |
| 1778043321 | 9.44° C | 74% | 1016 hPa | 0 mm | 1.34 m/s, 33° | 0 W/m² | - |
| 1778043018 | 9.44° C | 73% | 1016 hPa | 0 mm | 1.79 m/s, 42° | 0 W/m² | - |
| 1778042715 | 9.44° C | 73% | 1016 hPa | 0 mm | 2.24 m/s, 44° | 0 W/m² | - |
| 1778042411 | 9.44° C | 73% | 1016 hPa | 0 mm | 1.79 m/s, 55° | 0 W/m² | - |
| 1778042109 | 10° C | 72% | 1016 hPa | 0 mm | 1.34 m/s, 46° | 0 W/m² | - |
| 1778041807 | 10° C | 70% | 1015.7 hPa | 0 mm | 2.68 m/s, 8° | 0 W/m² | - |
| 1778041507 | 10° C | 70% | 1015.7 hPa | 0 mm | 2.24 m/s, 6° | 0 W/m² | - |
| 1778041204 | 10° C | 70% | 1015.3 hPa | 0 mm | 2.68 m/s, 48° | 0 W/m² | - |
| 1778040903 | 10° C | 73% | 1015.3 hPa | 0 mm | 1.79 m/s, 52° | 0 W/m² | - |
* Rain latest hour (hover to see other rain measurements)
** Current wind speed in m/s (hover to see current wind gust speed)